• Join FlightAware (Why Join?)
  • Login
  • US Flag 
06:30AM EDT


 

Airport Tracker/Info


-or-


 

Live Flight TrackerFlight Track Log ✈ N438SR ✈ 12-Aug-2013 ✈ KVLD - KTMB

Flight Track Log - Related Links

Times and Time Zones

All times are in EDT time to prevent confusion due to time zone crossing. See the N438SR flight status page for this flight to view local times or setup timezone preferences in your user account.

Time Position Orientation Groundspeed Altitude Reporting Facility
EDT Latitude Longitude Course Direction KTS MPH feet Rate Location/Type
11:29AM 30.7817 -83.2747 256° West 88 101 600  Level Jacksonville Center
11:30AM 30.7775 -83.2939 256° West 113 130 1,600 720 Climbing Jacksonville Center
11:31AM 30.7461 -83.2842 165° South 118 136 2,300 660 Climbing Jacksonville Center
11:32AM 30.7106 -83.2767 170° South 124 143 3,000 540 Climbing Jacksonville Center
11:33AM 30.6856 -83.2694 166° South 147 169 3,300 420 Climbing Jacksonville Center
11:34AM 30.6439 -83.2594 168° South 152 175 3,800 480 Climbing Jacksonville Center
11:35AM 30.6022 -83.2522 172° South 152 175 4,300 540 Climbing Jacksonville Center
11:36AM 30.5606 -83.2422 168° South 152 175 4,900 540 Climbing Jacksonville Center
11:37AM 30.5186 -83.2350 172° South 152 175 5,400 420 Climbing Jacksonville Center
11:38AM 30.4792 -83.2253 168° South 152 175 5,800 420 Climbing Jacksonville Center
11:39AM 30.4353 -83.2178 172° South 157 181 6,300 420 Climbing Jacksonville Center
11:40AM 30.3914 -83.2106 172° South 162 186 6,700 420 Climbing Jacksonville Center
11:41AM 30.3475 -83.2006 169° South 162 186 7,200 480 Climbing Jacksonville Center
11:42AM 30.3039 -83.1908 169° South 162 186 7,700 420 Climbing Jacksonville Center
11:43AM 30.2600 -83.1836 172° South 162 186 8,100 420 Climbing Jacksonville Center
11:44AM 30.2139 -83.1739 170° South 162 186 8,600 420 Climbing Jacksonville Center
11:45AM 30.1681 -83.1642 170° South 162 186 9,000 240 Climbing Jacksonville Center
11:46AM 30.1222 -83.1544 170° South 162 186 9,100  Climbing Jacksonville Center
11:47AM 30.0722 -83.1447 170° South 167 192 9,100  Level Jacksonville Center
11:48AM 30.0158 -83.1350 172° South 186 214 9,100  Level Jacksonville Center
11:49AM 29.9636 -83.1228 169° South 186 214 9,100  Level Jacksonville Center
11:50AM 29.9178 -83.1156 172° South 180 207 9,200  Climbing Jacksonville Center
11:51AM 29.8656 -83.1008 166° South 192 221 9,200 -60 Level Jacksonville Center
11:52AM 29.8194 -83.0961 175° South 187 215 9,100 -60 Descending Jacksonville Center
11:53AM 29.7717 -83.0864 170° South 180 207 9,100  Level Jacksonville Center
11:54AM 29.7194 -83.0744 169° South 180 207 9,200  Climbing Jacksonville Center
11:55AM 29.6692 -83.0669 173° South 178 205 9,100 -120 Descending Jacksonville Center
11:56AM 29.6422 -83.0575 163° South 177 204 9,100  Level Jacksonville Center
11:57AM 29.5919 -83.0503 173° South 179 206 9,100  Level Jacksonville Center
11:58AM 29.5483 -83.0214 150° Southeast 189 217 9,100  Level Jacksonville Center
11:59AM 29.5067 -82.9903 147° Southeast 180 207 9,200  Climbing Jacksonville Center
12:00PM 29.4586 -82.9594 151° Southeast 182 209 9,200 -60 Level Jacksonville Center
12:01PM 29.4147 -82.9331 152° Southeast 178 205 9,100  Descending Jacksonville Center
12:02PM 29.3731 -82.9022 147° Southeast 180 207 9,200  Climbing Jacksonville Center
12:03PM 29.3292 -82.8758 152° Southeast 179 206 9,200 -60 Level Jacksonville Center
12:04PM 29.2811 -82.8472 153° Southeast 180 207 9,100  Descending Jacksonville Center
12:05PM 29.2394 -82.8164 147° Southeast 179 206 9,200  Climbing Jacksonville Center
12:06PM 29.1933 -82.7878 152° Southeast 180 207 9,200  Level Jacksonville Center
12:07PM 29.1494 -82.7617 153° Southeast 181 208 9,200  Level Jacksonville Center
12:08PM 29.1036 -82.7308 150° Southeast 181 208 9,200  Level Jacksonville Center
12:09PM 29.0597 -82.7003 149° Southeast 180 207 9,200  Level Jacksonville Center
12:10PM 29.0181 -82.6742 151° Southeast 181 208 9,200  Level Jacksonville Center
12:11PM 28.9742 -82.6481 153° Southeast 179 206 9,200  Level Jacksonville Center
12:12PM 28.9281 -82.6150 148° Southeast 179 206 9,200 -60 Level Jacksonville Center
12:13PM 28.8819 -82.5867 152° Southeast 183 211 9,100 -120 Descending Jacksonville Center
12:14PM 28.8403 -82.5608 151° Southeast 177 204 9,000 -60 Descending Jacksonville Center
12:15PM 28.7964 -82.5325 150° Southeast 180 207 9,000 60 Level Jacksonville Center
12:17PM 28.7167 -82.4667 144° Southeast 180 207 9,200 60 Climbing Tampa TRACON
12:18PM 28.6667 -82.4500 164° South 180 207 9,200  Level Tampa TRACON
12:19PM 28.6167 -82.4167 150° Southeast 179 206 9,200 -60 Level Tampa TRACON
12:20PM 28.5833 -82.3833 139° Southeast 177 204 9,100 -60 Descending Tampa TRACON
12:21PM 28.5333 -82.3667 164° South 180 207 9,100  Level Tampa TRACON
12:22PM 28.4833 -82.3333 150° Southeast 178 205 9,200  Climbing Tampa TRACON
12:23PM 28.4667 -82.3167 139° Southeast 179 206 9,200  Level Tampa TRACON
12:24PM 28.4167 -82.2833 150° Southeast 179 206 9,200  Level Tampa TRACON
12:25PM 28.3667 -82.2667 164° South 178 205 9,200  Level Tampa TRACON
12:26PM 28.3333 -82.2333 139° Southeast 178 205 9,200  Level Tampa TRACON
12:27PM 28.2833 -82.2000 150° Southeast 177 204 9,200  Level Tampa TRACON
12:28PM 28.2333 -82.1833 164° South 178 205 9,200  Level Tampa TRACON
12:29PM 28.2000 -82.1500 139° Southeast 180 207 9,200  Level Tampa TRACON
12:30PM 28.1500 -82.1167 150° Southeast 179 206 9,200 -60 Level Tampa TRACON
12:32PM 28.0564 -82.0583 151° Southeast 158 182 9,100  Descending Miami Center
12:33PM 28.0133 -82.0328 152° Southeast 171 197 9,200  Climbing Miami Center
12:34PM 27.9686 -82.0047 151° Southeast 177 204 9,200  Level Miami Center
12:35PM 27.9214 -81.9792 154° Southeast 177 204 9,200  Level Miami Center
12:36PM 27.8742 -81.9561 157° South 177 204 9,200  Level Miami Center
12:37PM 27.8314 -81.9306 152° Southeast 177 204 9,200  Level Miami Center
12:38PM 27.7883 -81.9075 155° Southeast 182 209 9,200  Level Miami Center
12:39PM 27.7372 -81.8794 154° Southeast 187 215 9,200  Level Miami Center
12:40PM 27.6922 -81.8542 154° Southeast 187 215 9,200  Level Miami Center
12:41PM 27.6450 -81.8308 156° South 192 221 9,200  Level Miami Center
12:42PM 27.6039 -81.8106 156° South 187 215 9,200  Level Miami Center
12:43PM 27.5547 -81.7803 151° Southeast 182 209 9,200  Level Miami Center
12:44PM 27.5117 -81.7597 157° South 182 209 9,200  Level Miami Center
12:45PM 27.4769 -81.7417 155° Southeast 182 209 9,200  Level Miami Center
12:46PM 27.4214 -81.7114 154° Southeast 182 209 9,200  Level Miami Center
12:47PM 27.3764 -81.6861 153° Southeast 187 215 9,200  Level Miami Center
12:48PM 27.3292 -81.6631 157° South 187 215 9,200  Level Miami Center
12:49PM 27.2822 -81.6353 152° Southeast 187 215 9,200  Level Miami Center
12:50PM 27.2369 -81.6125 156° South 187 215 9,200  Level Miami Center
12:51PM 27.1897 -81.5872 155° Southeast 187 215 9,200  Level Miami Center
12:52PM 27.1447 -81.5619 153° Southeast 187 215 9,200  Level Miami Center
12:53PM 27.0994 -81.5369 154° Southeast 187 215 9,200  Level Miami Center
12:54PM 27.0522 -81.5142 157° South 187 215 9,200  Level Miami Center
12:55PM 27.0053 -81.4864 152° Southeast 187 215 9,200  Level Miami Center
12:56PM 26.9642 -81.4661 156° South 182 209 9,200  Level Miami Center
12:57PM 26.9167 -81.4433 157° South 182 209 9,200  Level Miami Center
12:58PM 26.8736 -81.4183 153° Southeast 182 209 9,200  Level Miami Center
12:59PM 26.8286 -81.3933 154° Southeast 182 209 9,200 -60 Level Miami Center
01:01PM 26.7688 -81.3610 157° South  Level FlightAware Approximate
01:04PM 26.6144 -81.2969 157° South 181 208 9,100  Level Miami Center
01:05PM 26.5692 -81.2742 156° South 181 208 9,100 -60 Level Miami Center
01:06PM 26.5239 -81.2539 158° South 176 203 9,000  Descending Miami Center
01:07PM 26.4806 -81.2361 160° South 184 212 9,100  Climbing Miami Center
01:08PM 26.4625 -81.2188 157° South  Level FlightAware Approximate
01:08PM 26.4392 -81.2183 159° South 184 212 9,100  Level Miami Center
01:09PM 26.3939 -81.1981 158° South 184 212 9,100  Level Miami Center
01:10PM 26.3467 -81.1756 157° South 184 212 9,100 -120 Level Miami Center
01:11PM 26.3014 -81.1553 158° South 184 212 8,900 -300 Descending Miami Center
01:12PM 26.2497 -81.1328 159° South 195 224 8,500 -540 Descending Miami Center
01:12PM 26.2022 -81.1169 163° South 196 226 8,000 -540 Descending Miami Center
01:13PM 26.1547 -81.0922 155° Southeast 192 221 7,600 -480 Descending Miami Center
01:14PM 26.1072 -81.0767 164° South 190 219 7,100 -540 Descending Miami Center
01:16PM 26.0497 -81.0447 153° Southeast 190 219 6,500 -480 Descending Miami Center
01:16PM 26.0125 -81.0317 163° South 188 216 6,200 -480 Descending Miami Center
01:18PM 25.9506 -81.0019 157° South 190 219 5,600 -480 Descending Miami Center
01:19PM 25.9097 -80.9706 145° Southeast 190 219 5,200 -480 Descending Miami Center
01:19PM 25.8689 -80.9414 147° Southeast 180 207 4,700 -600 Descending Miami Center
01:20PM 25.8322 -80.9056 139° Southeast 179 206 4,100 -660 Descending Miami Center
01:22PM 25.7958 -80.8628 133° Southeast 180 207 3,400 -720 Descending Miami Center
01:22PM 25.7678 -80.8203 126° Southeast 182 209 2,600 -660 Descending Miami Center
01:24PM 25.7314 -80.7731 131° Southeast 179 206 2,100 -360 Descending Miami Center
01:24PM 25.7053 -80.7375 129° Southeast 161 185 2,000  Descending Miami Center
01:25PM 25.6811 -80.6975 124° Southeast 159 183 2,100  Climbing Miami Center
01:26PM 25.6550 -80.6553 124° Southeast 163 188 2,000  Descending Miami Center
01:27PM 25.6414 -80.6156 111° Southeast 158 182 2,200 -300 Climbing Miami Center
01:29PM 25.6450 -80.5650 85° East 157 181 1,500 -480 Descending Miami Center
01:30PM 25.6710 -80.5215 56° Northeast  Level FlightAware Approximate
01:31PM 25.6486 -80.4961 56° Northeast 108 124 800  Level Miami Center
01:32PM 25.6472 -80.4683 93° East 80 92 500 -300 Descending Miami Center
01:34PM 25.6476 -80.4332 42° Northeast  Level Estimated
01:41PM 25.6476 -80.4332 200° South  Level Estimated